createdAt,value
2023-05-22T00:01:11.162Z,9.17
2023-05-22T00:03:40.809Z,9.30
2023-05-22T00:06:10.146Z,8.93
2023-05-22T00:08:38.301Z,9.07
2023-05-22T00:11:07.719Z,9.13
2023-05-22T00:13:35.775Z,8.70
2023-05-22T00:16:04.205Z,8.70
2023-05-22T00:18:32.448Z,9.03
2023-05-22T00:21:00.670Z,9.20
2023-05-22T00:23:29.948Z,8.67
2023-05-22T00:26:19.253Z,8.37
2023-05-22T00:28:47.233Z,8.40
2023-05-22T00:31:15.397Z,8.57
2023-05-22T00:33:43.567Z,9.27
2023-05-22T00:36:11.738Z,9.33
2023-05-22T00:38:39.988Z,7.93
2023-05-22T00:41:16.103Z,9.43
2023-05-22T00:43:51.042Z,9.17
2023-05-22T00:46:22.764Z,8.40
2023-05-22T00:48:52.577Z,12.73
2023-05-22T00:51:22.662Z,8.27
2023-05-22T00:53:54.986Z,9.10
2023-05-22T00:56:24.817Z,8.80
2023-05-22T00:58:56.296Z,8.83
2023-05-22T01:01:26.323Z,8.60
2023-05-22T01:03:55.617Z,9.37
2023-05-22T01:06:24.262Z,8.30
2023-05-22T01:08:52.303Z,8.53
2023-05-22T01:11:30.918Z,8.03
2023-05-22T01:14:08.399Z,7.57
2023-05-22T01:16:46.800Z,11.30
2023-05-22T01:19:39.380Z,9.20
2023-05-22T01:22:23.004Z,8.27
2023-05-22T01:25:17.908Z,8.10
2023-05-22T01:28:31.501Z,9.13
2023-05-22T01:31:03.882Z,8.70
2023-05-22T01:33:37.027Z,9.03
2023-05-22T01:36:09.010Z,8.10
2023-05-22T01:38:38.318Z,8.33
2023-05-22T01:41:07.458Z,7.83
2023-05-22T01:43:36.879Z,8.97
2023-05-22T01:46:06.742Z,7.97
2023-05-22T01:48:35.151Z,8.90
2023-05-22T01:51:08.881Z,8.60
2023-05-22T01:53:45.074Z,8.27
2023-05-22T01:56:17.748Z,8.37
2023-05-22T01:58:54.350Z,8.50
2023-05-22T02:01:26.453Z,8.37
2023-05-22T02:03:58.517Z,7.80
2023-05-22T02:06:30.068Z,7.57
2023-05-22T02:08:58.622Z,8.43
2023-05-22T02:11:29.067Z,8.57
2023-05-22T02:13:57.686Z,7.70
2023-05-22T02:16:28.654Z,7.77
2023-05-22T02:19:05.843Z,7.53
2023-05-22T02:21:35.159Z,8.70
2023-05-22T02:24:04.036Z,7.10
2023-05-22T02:26:32.310Z,7.87
2023-05-22T02:29:00.414Z,8.63
2023-05-22T02:31:30.284Z,11.73
2023-05-22T02:33:58.361Z,8.53
2023-05-22T02:36:27.373Z,7.67
2023-05-22T02:38:56.183Z,9.13
2023-05-22T02:41:24.398Z,7.80
2023-05-22T02:44:01.625Z,7.70
2023-05-22T02:46:31.081Z,7.47
2023-05-22T02:48:59.073Z,7.07
2023-05-22T02:51:27.148Z,9.07
2023-05-22T02:53:55.782Z,7.90
2023-05-22T02:56:24.038Z,8.03
2023-05-22T02:58:52.058Z,7.53
2023-05-22T03:01:20.036Z,8.00
2023-05-22T03:03:49.514Z,6.87
2023-05-22T03:06:18.189Z,7.87
2023-05-22T03:08:51.641Z,7.43
2023-05-22T03:11:19.787Z,7.87
2023-05-22T03:13:47.827Z,7.83
2023-05-22T03:16:15.864Z,8.73
2023-05-22T03:18:44.016Z,8.10
2023-05-22T03:21:13.404Z,8.13
2023-05-22T03:23:41.452Z,8.80
2023-05-22T03:26:09.456Z,7.13
2023-05-22T03:28:37.592Z,7.83
2023-05-22T03:31:05.805Z,7.57
2023-05-22T03:33:33.938Z,8.50
2023-05-22T03:36:03.466Z,7.17
2023-05-22T03:38:32.857Z,8.10
2023-05-22T03:41:00.920Z,7.90
2023-05-22T03:43:29.008Z,7.60
2023-05-22T03:45:59.276Z,7.77
2023-05-22T03:48:27.632Z,7.80
2023-05-22T03:50:56.830Z,7.30
2023-05-22T03:53:52.587Z,8.63
2023-05-22T03:56:26.773Z,8.10
2023-05-22T03:59:13.788Z,9.93
2023-05-22T04:01:42.238Z,11.10
2023-05-22T04:04:12.084Z,6.63
2023-05-22T04:06:43.061Z,7.10
2023-05-22T04:09:13.942Z,7.50
2023-05-22T04:11:42.413Z,7.10
2023-05-22T04:14:10.761Z,8.30
2023-05-22T04:16:38.862Z,7.07
2023-05-22T04:19:10.159Z,7.63
2023-05-22T04:21:39.270Z,6.70
2023-05-22T04:24:09.411Z,7.20
2023-05-22T04:26:41.707Z,6.70
2023-05-22T04:29:14.165Z,7.80
2023-05-22T04:31:42.853Z,7.40
2023-05-22T04:34:12.852Z,7.20
2023-05-22T04:36:40.886Z,7.40
2023-05-22T04:39:09.060Z,7.57
2023-05-22T04:41:40.437Z,7.33
2023-05-22T04:44:08.698Z,6.83
2023-05-22T04:46:37.052Z,7.03
2023-05-22T04:49:05.147Z,7.03
2023-05-22T04:51:34.842Z,8.10
2023-05-22T04:54:03.572Z,7.60
2023-05-22T04:56:36.979Z,7.17
2023-05-22T04:59:18.018Z,7.23
2023-05-22T05:01:50.417Z,7.07
2023-05-22T05:04:18.460Z,6.83
2023-05-22T05:06:46.658Z,7.07
2023-05-22T05:09:14.781Z,6.63
2023-05-22T05:11:42.782Z,7.20
2023-05-22T05:14:12.138Z,6.90
2023-05-22T05:16:40.204Z,8.40
2023-05-22T05:19:08.286Z,7.00
2023-05-22T05:21:45.289Z,7.63
2023-05-22T05:24:13.433Z,5.40
2023-05-22T05:26:41.430Z,6.57
2023-05-22T05:29:10.807Z,6.67
2023-05-22T05:31:38.917Z,6.07
2023-05-22T05:34:06.964Z,7.00
2023-05-22T05:36:35.073Z,7.10
2023-05-22T05:39:03.659Z,7.17
2023-05-22T05:41:31.743Z,7.07
2023-05-22T05:44:01.332Z,6.30
2023-05-22T05:46:30.782Z,6.50
2023-05-22T05:48:59.504Z,6.97
2023-05-22T05:51:27.578Z,7.77
2023-05-22T05:53:55.639Z,6.93
2023-05-22T05:56:23.662Z,6.60
2023-05-22T05:58:51.801Z,7.47
2023-05-22T06:01:19.912Z,6.17
2023-05-22T06:03:49.539Z,7.90
2023-05-22T06:06:18.109Z,6.40
2023-05-22T06:08:46.293Z,7.00
2023-05-22T06:11:14.291Z,7.10
2023-05-22T06:13:42.785Z,6.70
2023-05-22T06:16:10.910Z,6.53
2023-05-22T06:18:38.974Z,7.10
2023-05-22T06:21:08.452Z,7.27
2023-05-22T06:23:36.559Z,8.93
2023-05-22T06:26:05.103Z,7.13
2023-05-22T06:28:33.185Z,20.23
2023-05-22T06:31:04.647Z,20.97
2023-05-22T06:33:34.358Z,24.83
2023-05-22T06:36:02.560Z,19.77
2023-05-22T06:38:32.919Z,17.30
2023-05-22T06:41:01.178Z,16.60
2023-05-22T06:43:29.192Z,15.10
2023-05-22T06:45:57.309Z,14.10
2023-05-22T06:48:25.489Z,14.80
2023-05-22T06:50:53.478Z,13.50
2023-05-22T06:53:21.701Z,15.57
2023-05-22T06:55:51.108Z,19.23
2023-05-22T06:58:19.619Z,14.07
2023-05-22T07:00:47.670Z,15.20
2023-05-22T07:03:15.981Z,15.17
2023-05-22T07:05:44.362Z,13.37
2023-05-22T07:08:12.684Z,15.60
2023-05-22T07:10:46.886Z,11.47
2023-05-22T07:13:16.230Z,11.37
2023-05-22T07:15:46.418Z,46.03
2023-05-22T07:18:15.063Z,36.37
2023-05-22T07:20:43.226Z,34.13
2023-05-22T07:23:11.265Z,36.63
2023-05-22T07:25:39.402Z,34.63
2023-05-22T07:28:08.952Z,36.07
2023-05-22T07:30:39.668Z,36.77
2023-05-22T07:33:07.982Z,36.20
2023-05-22T07:35:36.187Z,40.80
2023-05-22T07:38:04.822Z,36.10
2023-05-22T07:40:32.913Z,44.27
2023-05-22T07:43:01.047Z,38.00
2023-05-22T07:45:29.084Z,40.43
2023-05-22T07:47:59.005Z,39.77
2023-05-22T07:50:36.425Z,40.83
2023-05-22T07:53:04.505Z,42.77
2023-05-22T07:55:32.625Z,42.30
2023-05-22T07:58:04.171Z,40.43
2023-05-22T08:00:32.329Z,45.00
2023-05-22T08:03:02.008Z,47.27
2023-05-22T08:05:30.112Z,47.90
2023-05-22T08:07:58.237Z,45.90
2023-05-22T08:10:28.092Z,47.27
2023-05-22T08:13:02.184Z,45.73
2023-05-22T08:15:30.172Z,50.33
2023-05-22T08:17:58.194Z,44.47
2023-05-22T08:20:27.619Z,46.83
2023-05-22T08:22:55.691Z,51.70
2023-05-22T08:25:23.806Z,45.00
2023-05-22T08:27:51.985Z,46.50
2023-05-22T08:30:20.128Z,47.10
2023-05-22T08:32:48.288Z,45.27
2023-05-22T08:35:16.736Z,44.43
2023-05-22T08:37:46.126Z,47.87
2023-05-22T08:40:15.840Z,46.33
2023-05-22T08:42:43.918Z,46.10
2023-05-22T08:45:15.779Z,44.87
2023-05-22T08:47:53.682Z,41.93
2023-05-22T08:50:22.167Z,40.00
2023-05-22T08:52:53.977Z,45.87
2023-05-22T08:55:23.308Z,46.70
2023-05-22T08:57:52.142Z,42.90
2023-05-22T09:00:22.154Z,43.27
2023-05-22T09:02:51.028Z,44.13
2023-05-22T09:05:19.202Z,44.63
2023-05-22T09:07:48.867Z,40.70
2023-05-22T09:10:18.323Z,46.30
2023-05-22T09:13:03.727Z,46.50
2023-05-22T09:15:33.289Z,47.97
2023-05-22T09:18:01.913Z,49.90
2023-05-22T09:20:29.983Z,48.30
2023-05-22T09:22:58.054Z,46.00
2023-05-22T09:25:29.104Z,43.47
2023-05-22T09:27:57.228Z,41.77
2023-05-22T09:30:25.491Z,40.43
2023-05-22T09:32:54.188Z,39.53
2023-05-22T09:35:22.610Z,40.83
2023-05-22T09:37:51.485Z,38.97
2023-05-22T09:40:19.587Z,34.47
2023-05-22T09:42:48.965Z,34.47
2023-05-22T09:45:22.800Z,35.30
2023-05-22T09:47:51.614Z,33.07
2023-05-22T09:50:19.684Z,32.60
2023-05-22T09:52:50.964Z,30.50
2023-05-22T09:55:21.489Z,31.50
2023-05-22T09:57:53.642Z,30.33
2023-05-22T10:00:24.075Z,28.87
2023-05-22T10:03:03.344Z,26.60
2023-05-22T10:05:32.987Z,30.03
2023-05-22T10:08:10.849Z,29.07
2023-05-22T10:10:40.184Z,27.73
2023-05-22T10:13:10.170Z,28.27
2023-05-22T10:15:38.834Z,28.50
2023-05-22T10:18:07.838Z,27.73
2023-05-22T10:20:36.675Z,33.03
2023-05-22T10:23:05.042Z,28.73
2023-05-22T10:25:33.586Z,28.87
2023-05-22T10:28:02.639Z,33.03
2023-05-22T10:30:43.500Z,25.03
2023-05-22T10:33:16.672Z,25.60
2023-05-22T10:35:54.167Z,25.30
2023-05-22T10:38:52.037Z,25.37
2023-05-22T10:41:21.245Z,25.63
2023-05-22T10:43:51.184Z,26.50
2023-05-22T10:46:20.648Z,24.20
2023-05-22T10:48:50.849Z,25.77
2023-05-22T10:51:23.297Z,25.57
2023-05-22T10:53:54.291Z,25.43
2023-05-22T10:56:25.296Z,27.20
2023-05-22T10:58:59.124Z,22.73
2023-05-22T11:01:28.872Z,25.47
2023-05-22T11:03:59.112Z,26.00
2023-05-22T11:06:37.962Z,24.53
2023-05-22T11:09:28.821Z,26.17
2023-05-22T11:12:17.901Z,25.20
2023-05-22T11:14:52.279Z,23.97
2023-05-22T11:17:25.754Z,25.23
2023-05-22T11:20:02.902Z,22.33
2023-05-22T11:22:34.275Z,22.50
2023-05-22T11:25:08.549Z,22.20
2023-05-22T11:27:39.037Z,22.03
2023-05-22T11:30:09.811Z,21.57
2023-05-22T11:32:41.183Z,24.53
2023-05-22T11:35:10.041Z,26.53
2023-05-22T11:37:41.652Z,20.53
2023-05-22T11:40:11.536Z,21.93
2023-05-22T11:42:39.601Z,21.20
2023-05-22T11:45:08.962Z,23.07
2023-05-22T11:47:38.874Z,20.50
2023-05-22T11:50:11.365Z,19.67
2023-05-22T11:52:41.103Z,21.23
2023-05-22T11:55:10.811Z,21.63
2023-05-22T11:57:39.368Z,21.00
2023-05-22T12:00:10.687Z,20.97
2023-05-22T12:02:45.598Z,21.93
2023-05-22T12:05:14.019Z,23.83
2023-05-22T12:07:42.376Z,19.70
2023-05-22T12:10:12.337Z,20.60
2023-05-22T12:12:40.422Z,19.50
2023-05-22T12:15:09.971Z,19.80
2023-05-22T12:17:38.776Z,20.27
2023-05-22T12:20:08.935Z,19.03
2023-05-22T12:22:43.355Z,17.43
2023-05-22T12:25:16.439Z,19.97
2023-05-22T12:27:45.270Z,24.93
2023-05-22T12:30:15.632Z,20.37
2023-05-22T12:32:49.218Z,19.17
2023-05-22T12:35:19.079Z,21.53
2023-05-22T12:37:51.568Z,18.73
2023-05-22T12:40:20.031Z,21.70
2023-05-22T12:42:50.161Z,23.00
2023-05-22T12:45:18.591Z,19.03
2023-05-22T12:47:49.690Z,20.80
2023-05-22T12:50:19.224Z,26.73
2023-05-22T12:52:47.287Z,28.37
2023-05-22T12:55:15.429Z,18.30
2023-05-22T12:57:43.421Z,17.47
2023-05-22T13:00:13.437Z,22.93
2023-05-22T13:02:41.655Z,18.97
2023-05-22T13:05:10.229Z,16.50
2023-05-22T13:07:39.678Z,19.90
2023-05-22T13:10:09.698Z,21.57
2023-05-22T13:12:37.784Z,22.13
2023-05-22T13:15:07.199Z,19.00
2023-05-22T13:17:35.815Z,17.23
2023-05-22T13:20:04.356Z,19.07
2023-05-22T13:22:32.523Z,48.40
2023-05-22T13:25:02.014Z,26.10
2023-05-22T13:27:32.700Z,26.00
2023-05-22T13:30:01.549Z,36.67
2023-05-22T13:32:29.800Z,29.20
2023-05-22T13:34:58.072Z,29.93
2023-05-22T13:37:26.422Z,25.40
2023-05-22T13:39:54.550Z,20.63
2023-05-22T13:42:24.033Z,22.83
2023-05-22T13:44:52.197Z,27.77
2023-05-22T13:47:20.495Z,28.87
2023-05-22T13:49:48.975Z,21.80
2023-05-22T13:52:16.966Z,21.90
2023-05-22T13:54:45.414Z,18.83
2023-05-22T13:57:13.516Z,22.60
2023-05-22T13:59:42.898Z,28.40
2023-05-22T14:02:11.407Z,18.37
2023-05-22T14:04:39.719Z,34.37
2023-05-22T14:07:07.883Z,17.20
2023-05-22T14:09:36.056Z,20.03
2023-05-22T14:12:04.566Z,16.90
2023-05-22T14:14:32.606Z,17.40
2023-05-22T14:17:02.163Z,20.70
2023-05-22T14:19:30.724Z,15.77
2023-05-22T14:21:58.817Z,18.23
2023-05-22T14:24:26.800Z,18.63
2023-05-22T14:26:57.769Z,18.07
2023-05-22T14:29:26.129Z,17.20
2023-05-22T14:32:04.488Z,14.60
2023-05-22T14:34:32.771Z,13.93
2023-05-22T14:37:00.849Z,14.17
2023-05-22T14:39:29.258Z,13.90
2023-05-22T14:41:57.526Z,17.20
2023-05-22T14:44:25.735Z,14.97
2023-05-22T14:46:54.693Z,13.90
2023-05-22T14:49:24.090Z,13.90
2023-05-22T14:51:52.855Z,15.03
2023-05-22T14:54:23.555Z,13.53
2023-05-22T14:56:51.653Z,14.87
2023-05-22T14:59:19.656Z,14.77
2023-05-22T15:01:50.252Z,14.57
2023-05-22T15:04:18.542Z,15.60
2023-05-22T15:06:48.026Z,12.60
2023-05-22T15:09:16.209Z,13.87
2023-05-22T15:11:46.686Z,13.50
2023-05-22T15:14:14.874Z,16.97
2023-05-22T15:16:43.188Z,13.93
2023-05-22T15:19:11.364Z,13.57
2023-05-22T15:21:42.008Z,13.03
2023-05-22T15:24:11.686Z,14.33
2023-05-22T15:26:39.755Z,13.77
2023-05-22T15:29:07.849Z,14.40
2023-05-22T15:31:35.907Z,13.43
2023-05-22T15:34:04.014Z,13.87
2023-05-22T15:36:36.341Z,12.13
2023-05-22T15:39:04.748Z,12.33
2023-05-22T15:41:34.194Z,15.70
2023-05-22T15:44:02.272Z,11.30
2023-05-22T15:46:30.403Z,12.70
2023-05-22T15:48:58.519Z,18.73
2023-05-22T15:51:26.542Z,11.53
2023-05-22T15:53:54.577Z,14.70
2023-05-22T15:56:23.344Z,22.97
2023-05-22T15:58:52.681Z,33.67
2023-05-22T16:01:20.768Z,37.07
2023-05-22T16:03:48.914Z,44.17
2023-05-22T16:06:17.106Z,41.53
2023-05-22T16:08:45.169Z,47.33
2023-05-22T16:11:13.411Z,56.03
2023-05-22T16:13:41.649Z,59.13
2023-05-22T16:16:15.175Z,52.07
2023-05-22T16:18:43.270Z,48.17
2023-05-22T16:21:11.313Z,51.60
2023-05-22T16:23:39.362Z,45.27
2023-05-22T16:26:07.437Z,43.30
2023-05-22T16:28:35.511Z,47.93
2023-05-22T16:31:03.618Z,53.97
2023-05-22T16:33:40.710Z,129.53
2023-05-22T16:36:09.213Z,46.60
2023-05-22T16:38:37.295Z,51.40
2023-05-22T16:41:05.592Z,44.03
2023-05-22T16:43:33.718Z,45.07
2023-05-22T16:46:01.713Z,57.53
2023-05-22T16:48:29.744Z,47.30
2023-05-22T16:50:59.088Z,47.53
2023-05-22T16:53:27.134Z,47.10
2023-05-22T16:55:55.607Z,53.43
2023-05-22T16:58:23.638Z,50.73
2023-05-22T17:00:51.945Z,51.80
2023-05-22T17:03:20.694Z,49.70
2023-05-22T17:05:50.167Z,49.47
2023-05-22T17:08:19.606Z,52.90
2023-05-22T17:10:47.680Z,46.63
2023-05-22T17:13:20.737Z,49.20
2023-05-22T17:15:49.762Z,46.70
2023-05-22T17:18:19.837Z,44.10
2023-05-22T17:20:48.055Z,42.97
2023-05-22T17:23:16.349Z,51.30
2023-05-22T17:25:46.697Z,41.70
2023-05-22T17:28:15.479Z,42.93
2023-05-22T17:30:44.097Z,44.20
2023-05-22T17:33:12.798Z,40.87
2023-05-22T17:35:41.024Z,44.90
2023-05-22T17:38:09.283Z,58.43
2023-05-22T17:43:09.619Z,56.37
2023-05-22T17:45:37.832Z,47.03
2023-05-22T17:48:07.976Z,44.70
2023-05-22T17:50:36.232Z,42.20
2023-05-22T17:53:04.306Z,44.30
2023-05-22T17:55:32.348Z,44.00
2023-05-22T17:58:00.567Z,38.33
2023-05-22T18:00:29.991Z,38.80
2023-05-22T18:02:58.070Z,37.17
2023-05-22T18:05:26.356Z,38.23
2023-05-22T18:07:54.418Z,36.53
2023-05-22T18:10:25.362Z,36.33
2023-05-22T18:12:53.395Z,46.40
2023-05-22T18:15:21.524Z,34.40
2023-05-22T18:17:50.922Z,31.67
2023-05-22T18:20:20.035Z,33.97
2023-05-22T18:22:48.050Z,31.57
2023-05-22T18:25:16.160Z,25.43
2023-05-22T18:27:44.267Z,22.33
2023-05-22T18:30:13.403Z,20.90
2023-05-22T18:32:41.484Z,24.80
2023-05-22T18:35:11.104Z,16.60
2023-05-22T18:37:39.175Z,17.53
2023-05-22T18:40:09.410Z,18.87
2023-05-22T18:42:37.477Z,16.73
2023-05-22T18:45:07.672Z,12.10
2023-05-22T18:47:35.853Z,12.77
2023-05-22T18:50:03.919Z,12.53
2023-05-22T18:52:33.270Z,10.70
2023-05-22T18:55:01.342Z,10.23
2023-05-22T18:57:29.313Z,12.50
2023-05-22T18:59:57.312Z,9.87
2023-05-22T19:02:25.370Z,10.57
2023-05-22T19:04:53.480Z,9.50
2023-05-22T19:07:21.688Z,10.97
2023-05-22T19:09:51.384Z,9.30
2023-05-22T19:12:19.460Z,8.97
2023-05-22T19:14:48.241Z,10.37
2023-05-22T19:17:16.416Z,9.60
2023-05-22T19:19:44.512Z,10.17
2023-05-22T19:22:12.544Z,11.30
2023-05-22T19:24:40.575Z,10.13
2023-05-22T19:27:09.981Z,8.50
2023-05-22T19:29:38.042Z,9.10
2023-05-22T19:32:06.723Z,9.83
2023-05-22T19:34:34.765Z,10.20
2023-05-22T19:37:02.783Z,9.33
2023-05-22T19:39:30.875Z,10.07
2023-05-22T19:41:58.900Z,10.67
2023-05-22T19:44:28.251Z,9.70
2023-05-22T19:46:57.040Z,11.37
2023-05-22T19:49:25.118Z,9.63
2023-05-22T19:51:55.921Z,9.13
2023-05-22T19:54:24.315Z,9.67
2023-05-22T19:56:52.424Z,8.63
2023-05-22T19:59:20.722Z,10.37
2023-05-22T20:01:52.815Z,10.30
2023-05-22T20:04:21.869Z,10.50
2023-05-22T20:06:50.784Z,10.93
2023-05-22T20:09:18.892Z,10.70
2023-05-22T20:11:47.000Z,10.47
2023-05-22T20:14:15.185Z,10.70
2023-05-22T20:16:43.559Z,10.70
2023-05-22T20:19:14.242Z,13.83
2023-05-22T20:21:42.333Z,11.77
2023-05-22T20:24:17.342Z,10.97
2023-05-22T20:26:45.727Z,10.07
2023-05-22T20:29:14.305Z,9.67
2023-05-22T20:31:42.374Z,9.63
2023-05-22T20:34:11.885Z,11.67
2023-05-22T20:36:42.432Z,10.07
2023-05-22T20:39:11.735Z,17.20
2023-05-22T20:41:39.818Z,13.77
2023-05-22T20:44:08.221Z,15.40
2023-05-22T20:46:36.370Z,10.70
2023-05-22T20:49:05.137Z,13.20
2023-05-22T20:51:34.623Z,17.70
2023-05-22T20:54:02.681Z,11.33
2023-05-22T20:56:30.903Z,19.90
2023-05-22T20:58:59.008Z,18.37
2023-05-22T21:01:27.076Z,13.43
2023-05-22T21:03:56.262Z,15.97
2023-05-22T21:06:24.795Z,13.33
2023-05-22T21:08:58.791Z,16.50
2023-05-22T21:11:26.967Z,16.23
2023-05-22T21:13:55.253Z,28.77
2023-05-22T21:16:23.286Z,13.47
2023-05-22T21:18:51.386Z,15.63
2023-05-22T21:21:21.434Z,12.80
2023-05-22T21:23:49.768Z,15.40
2023-05-22T21:26:22.130Z,15.33
2023-05-22T21:28:50.399Z,14.73
2023-05-22T21:31:18.537Z,12.33
2023-05-22T21:33:46.745Z,11.30
2023-05-22T21:36:14.760Z,14.40
2023-05-22T21:38:42.805Z,16.67
2023-05-22T21:41:11.631Z,14.30
2023-05-22T21:43:41.081Z,9.97
2023-05-22T21:46:09.311Z,12.20
2023-05-22T21:48:37.376Z,11.90
2023-05-22T21:51:06.031Z,10.17
2023-05-22T21:53:34.095Z,12.13
2023-05-22T21:56:02.101Z,8.47
2023-05-22T21:58:30.179Z,13.80
2023-05-22T22:00:59.800Z,10.70
2023-05-22T22:03:27.908Z,8.37
2023-05-22T22:05:56.009Z,12.10
2023-05-22T22:08:24.172Z,11.63
2023-05-22T22:10:52.434Z,14.60
2023-05-22T22:13:20.765Z,12.30
2023-05-22T22:15:48.824Z,9.00
2023-05-22T22:18:18.900Z,18.90
2023-05-22T22:20:47.896Z,10.73
2023-05-22T22:23:16.079Z,11.07
2023-05-22T22:25:44.111Z,13.30
2023-05-22T22:28:12.078Z,12.20
2023-05-22T22:30:40.350Z,8.53
2023-05-22T22:33:08.585Z,14.93
2023-05-22T22:35:38.226Z,8.73
2023-05-22T22:38:06.298Z,8.80
2023-05-22T22:40:34.349Z,9.83
2023-05-22T22:43:02.382Z,8.27
2023-05-22T22:45:30.375Z,10.33
2023-05-22T22:47:58.551Z,11.00
2023-05-22T22:50:26.609Z,8.80
2023-05-22T22:52:56.105Z,11.10
2023-05-22T22:55:24.398Z,10.97
2023-05-22T22:57:53.331Z,10.20
2023-05-22T23:00:21.441Z,8.77
2023-05-22T23:02:49.505Z,6.77
2023-05-22T23:05:20.522Z,15.13
2023-05-22T23:07:49.125Z,9.30
2023-05-22T23:10:18.827Z,9.70
2023-05-22T23:12:50.075Z,8.20
2023-05-22T23:15:18.197Z,7.83
2023-05-22T23:17:46.292Z,8.70
2023-05-22T23:20:14.378Z,8.50
2023-05-22T23:22:45.213Z,9.30
2023-05-22T23:25:13.265Z,8.07
2023-05-22T23:27:42.585Z,6.47
2023-05-22T23:30:11.498Z,8.13
2023-05-22T23:32:39.518Z,8.30
2023-05-22T23:35:09.434Z,10.23
2023-05-22T23:37:37.627Z,8.87
2023-05-22T23:40:07.624Z,8.00
2023-05-22T23:42:36.158Z,8.00
2023-05-22T23:45:06.748Z,7.03
2023-05-22T23:47:34.862Z,7.77
2023-05-22T23:50:02.871Z,7.67
2023-05-22T23:52:30.905Z,14.70
2023-05-22T23:54:58.949Z,9.03
2023-05-22T23:57:26.974Z,8.43
2023-05-22T23:59:54.950Z,7.63
